Time;durP1;ratioP1;P1;durP2;ratioP2;P2;SDS_P1;SDS_P2;PMS_P1;PMS_P2;Temp;Humidity;BMP_temperature;BMP_pressure;BME280_temperature;BME280_humidity;BME280_pressure;Samples;Min_cycle;Max_cycle;Signal;HPM_P1;HPM_P2
2022/05/16 00:02:12;;;;;;;3.75;2.08;;;;;;;;;;5109766;27;20055;-56
2022/05/16 00:04:41;;;;;;;4.88;1.35;;;;;;;;;;5112326;27;20043;-56
2022/05/16 00:07:07;;;;;;;12.35;3.00;;;;;;;;;;5109028;27;20051;-56
2022/05/16 00:09:32;;;;;;;7.78;2.63;;;;;;;;;;5120603;27;20367;-57
2022/05/16 00:11:57;;;;;;;4.85;2.38;;;;;;;;;;5119422;27;20103;-57
2022/05/16 00:14:23;;;;;;;9.80;2.35;;;;;;;;;;5111997;27;20088;-57
2022/05/16 00:16:49;;;;;;;6.85;2.35;;;;;;;;;;5110764;27;20134;-57
2022/05/16 00:19:14;;;;;;;3.03;1.77;;;;;;;;;;5100279;27;20181;-57
2022/05/16 00:36:53;;;;;;;4.60;2.78;;;;;;;;;;5117299;27;20042;-55
2022/05/16 00:39:20;;;;;;;8.93;1.92;;;;;;;;;;5111084;27;20043;-57
2022/05/16 00:41:46;;;;;;;5.32;1.83;;;;;;;;;;5113052;27;20130;-57
2022/05/16 00:44:12;;;;;;;6.93;2.90;;;;;;;;;;5109461;27;20122;-58
2022/05/16 00:46:37;;;;;;;16.17;3.33;;;;;;;;;;5112026;27;20063;-58
2022/05/16 00:49:04;;;;;;;12.10;1.75;;;;;;;;;;5110736;27;20044;-58
2022/05/16 00:51:35;;;;;;;9.98;1.95;;;;;;;;;;5113330;27;20135;-55
2022/05/16 00:54:12;;;;;;;7.13;4.05;;;;;;;;;;5109477;27;20079;-55
2022/05/16 00:56:37;;;;;;;4.63;1.85;;;;;;;;;;5111986;27;20054;-55
2022/05/16 00:59:03;;;;;;;11.13;3.70;;;;;;;;;;5110357;27;20039;-55
2022/05/16 01:06:57;;;;;;;5.30;2.70;;;;;;;;;;5118181;28;20086;-55
2022/05/16 01:09:22;;;;;;;5.03;3.00;;;;;;;;;;5115331;28;20896;-55
2022/05/16 01:11:48;;;;;;;19.02;3.78;;;;;;;;;;5111384;28;20046;-56
2022/05/16 01:14:32;;;;;;;4.50;2.90;;;;;;;;;;5114050;27;20507;-56
2022/05/16 01:16:57;;;;;;;14.02;3.72;;;;;;;;;;5110344;27;20427;-56
2022/05/16 01:19:23;;;;;;;3.33;2.05;;;;;;;;;;5120547;27;20970;-56
2022/05/16 01:21:48;;;;;;;12.43;2.45;;;;;;;;;;5120048;27;20093;-55
2022/05/16 01:24:16;;;;;;;9.70;4.15;;;;;;;;;;5118061;27;20485;-56
2022/05/16 01:26:41;;;;;;;2.55;1.80;;;;;;;;;;5122894;27;20154;-54
2022/05/16 01:29:07;;;;;;;5.22;3.03;;;;;;;;;;5124590;27;20149;-56
2022/05/16 01:31:33;;;;;;;11.82;2.67;;;;;;;;;;5116874;27;20032;-56
2022/05/16 01:33:59;;;;;;;5.78;3.20;;;;;;;;;;5121788;27;20055;-56
2022/05/16 01:36:25;;;;;;;4.38;2.53;;;;;;;;;;5119458;27;20403;-56
2022/05/16 01:38:51;;;;;;;11.40;4.72;;;;;;;;;;5122759;27;20141;-56
2022/05/16 01:41:18;;;;;;;4.22;2.83;;;;;;;;;;5122567;27;20050;-56
2022/05/16 01:43:48;;;;;;;4.57;2.75;;;;;;;;;;5113594;27;20043;-56
2022/05/16 01:46:15;;;;;;;4.05;2.30;;;;;;;;;;5111278;27;20063;-56
2022/05/16 01:48:41;;;;;;;4.45;3.20;;;;;;;;;;5112678;27;20067;-56
2022/05/16 01:51:08;;;;;;;10.68;3.05;;;;;;;;;;5110530;27;20043;-57
2022/05/16 01:53:33;;;;;;;6.38;2.53;;;;;;;;;;5120767;27;20067;-56
2022/05/16 01:55:59;;;;;;;3.95;1.80;;;;;;;;;;5118666;27;20071;-56
2022/05/16 01:58:24;;;;;;;3.30;2.25;;;;;;;;;;5121303;27;20131;-57
2022/05/16 02:00:50;;;;;;;12.55;3.88;;;;;;;;;;5120686;27;20055;-57
2022/05/16 02:03:16;;;;;;;8.65;3.55;;;;;;;;;;5120952;27;20062;-57
2022/05/16 02:05:42;;;;;;;5.43;2.80;;;;;;;;;;5123738;27;20043;-56
2022/05/16 02:08:07;;;;;;;19.63;3.58;;;;;;;;;;5115094;27;20048;-57
2022/05/16 02:10:33;;;;;;;4.97;3.00;;;;;;;;;;5117823;27;20108;-57
2022/05/16 02:12:59;;;;;;;13.32;4.78;;;;;;;;;;5111229;27;20050;-57
2022/05/16 02:15:26;;;;;;;5.63;3.22;;;;;;;;;;5108000;27;20206;-56
2022/05/16 02:17:51;;;;;;;6.63;2.70;;;;;;;;;;5118329;27;20051;-56
2022/05/16 02:20:17;;;;;;;7.00;2.40;;;;;;;;;;5120758;27;20508;-56
2022/05/16 02:25:26;;;;;;;17.67;3.53;;;;;;;;;;5119792;27;20054;-57
2022/05/16 02:27:52;;;;;;;3.78;1.80;;;;;;;;;;5119731;27;20043;-56
2022/05/16 02:30:20;;;;;;;4.68;3.03;;;;;;;;;;5120142;27;20157;-56
2022/05/16 02:32:45;;;;;;;18.65;3.22;;;;;;;;;;5120321;27;20050;-57
2022/05/16 02:35:11;;;;;;;4.45;2.40;;;;;;;;;;5119724;27;20047;-57
2022/05/16 02:37:36;;;;;;;15.43;3.78;;;;;;;;;;5118672;27;20492;-57
2022/05/16 02:40:01;;;;;;;5.40;2.72;;;;;;;;;;5109134;27;20051;-56
2022/05/16 02:42:27;;;;;;;4.70;2.58;;;;;;;;;;5115776;27;20039;-57
2022/05/16 02:44:52;;;;;;;10.15;4.28;;;;;;;;;;5118925;27;20066;-56
2022/05/16 02:47:20;;;;;;;4.43;2.83;;;;;;;;;;5116583;27;20135;-56
2022/05/16 02:49:45;;;;;;;5.28;3.03;;;;;;;;;;5117509;27;20102;-57
2022/05/16 02:52:10;;;;;;;7.13;3.28;;;;;;;;;;5113570;27;20051;-56
2022/05/16 02:54:36;;;;;;;2.85;1.40;;;;;;;;;;5117101;27;20054;-57
2022/05/16 02:57:02;;;;;;;2.65;1.90;;;;;;;;;;5119711;27;20053;-56
2022/05/16 02:59:32;;;;;;;9.30;2.42;;;;;;;;;;5114688;27;20067;-56
2022/05/16 03:01:57;;;;;;;4.38;2.53;;;;;;;;;;5118308;27;20039;-58
2022/05/16 03:04:23;;;;;;;13.80;3.55;;;;;;;;;;5110863;27;20444;-56
2022/05/16 03:06:48;;;;;;;4.38;2.47;;;;;;;;;;5117846;27;20381;-58
2022/05/16 03:09:13;;;;;;;4.70;3.28;;;;;;;;;;5100604;27;20041;-56
2022/05/16 03:11:38;;;;;;;15.27;3.15;;;;;;;;;;5121580;27;20537;-56
2022/05/16 03:14:04;;;;;;;6.80;3.55;;;;;;;;;;5120295;27;20046;-56
2022/05/16 03:16:29;;;;;;;10.10;5.07;;;;;;;;;;5105685;27;20047;-56
2022/05/16 03:18:55;;;;;;;9.45;2.90;;;;;;;;;;5116699;27;20408;-57
2022/05/16 03:21:20;;;;;;;6.75;2.95;;;;;;;;;;5121014;27;20049;-56
2022/05/16 03:23:46;;;;;;;9.15;2.85;;;;;;;;;;5120231;27;20653;-56
2022/05/16 03:26:12;;;;;;;14.10;3.17;;;;;;;;;;5116837;27;20047;-56
2022/05/16 03:28:38;;;;;;;11.02;4.05;;;;;;;;;;5119891;27;20124;-56
2022/05/16 03:31:03;;;;;;;7.68;2.75;;;;;;;;;;5119132;27;20046;-56
2022/05/16 03:33:28;;;;;;;7.13;1.92;;;;;;;;;;5111670;27;20104;-56
2022/05/16 03:35:56;;;;;;;11.77;3.70;;;;;;;;;;5111435;27;20059;-56
2022/05/16 03:41:12;;;;;;;3.47;1.92;;;;;;;;;;5112113;27;20058;-56
2022/05/16 03:43:38;;;;;;;4.20;2.35;;;;;;;;;;5120019;27;20051;-57
2022/05/16 03:46:04;;;;;;;5.50;3.08;;;;;;;;;;5115259;27;20404;-56
2022/05/16 03:48:29;;;;;;;7.57;2.60;;;;;;;;;;5107695;27;20511;-57
2022/05/16 03:50:55;;;;;;;8.43;3.47;;;;;;;;;;5114405;27;20431;-56
2022/05/16 03:53:20;;;;;;;4.28;2.72;;;;;;;;;;5106748;27;20463;-57
2022/05/16 03:55:46;;;;;;;5.72;2.40;;;;;;;;;;5110754;27;20036;-56
2022/05/16 03:58:12;;;;;;;2.75;2.33;;;;;;;;;;5115931;27;20121;-57
2022/05/16 04:00:37;;;;;;;4.25;3.22;;;;;;;;;;5112628;27;20507;-57
2022/05/16 04:03:03;;;;;;;5.15;2.28;;;;;;;;;;5111105;27;20700;-56
2022/05/16 04:05:28;;;;;;;8.88;3.53;;;;;;;;;;5114818;27;20581;-56
2022/05/16 04:07:53;;;;;;;13.43;2.83;;;;;;;;;;5098244;27;20047;-56
2022/05/16 04:10:20;;;;;;;7.20;4.20;;;;;;;;;;5121509;27;20044;-56
2022/05/16 04:12:45;;;;;;;7.97;3.15;;;;;;;;;;5119858;27;20705;-56
2022/05/16 04:15:12;;;;;;;10.25;2.40;;;;;;;;;;5116012;27;20044;-55
2022/05/16 04:17:37;;;;;;;3.53;2.63;;;;;;;;;;5113609;27;20062;-56
2022/05/16 04:20:03;;;;;;;4.95;3.55;;;;;;;;;;5107030;27;20086;-57
2022/05/16 04:22:30;;;;;;;5.38;4.05;;;;;;;;;;5114589;27;20039;-56
2022/05/16 04:24:56;;;;;;;10.23;3.60;;;;;;;;;;5111388;27;20412;-56
2022/05/16 04:27:21;;;;;;;5.72;3.25;;;;;;;;;;5113724;27;20534;-56
2022/05/16 04:29:46;;;;;;;3.75;2.72;;;;;;;;;;5115877;27;20489;-56
2022/05/16 04:32:12;;;;;;;17.30;3.72;;;;;;;;;;5108057;27;20036;-56
2022/05/16 04:34:37;;;;;;;5.47;3.15;;;;;;;;;;5104652;27;20039;-56
2022/05/16 04:37:02;;;;;;;9.43;3.40;;;;;;;;;;5113959;27;20044;-57
2022/05/16 04:39:28;;;;;;;10.43;3.10;;;;;;;;;;5119980;27;20146;-56
2022/05/16 04:44:38;;;;;;;5.18;3.47;;;;;;;;;;5116260;27;20599;-57
2022/05/16 04:47:04;;;;;;;13.15;4.88;;;;;;;;;;5117220;27;20557;-56
2022/05/16 04:49:30;;;;;;;11.80;3.55;;;;;;;;;;5112176;27;20062;-56
2022/05/16 04:51:55;;;;;;;9.25;4.57;;;;;;;;;;5118257;27;20471;-55
2022/05/16 04:54:21;;;;;;;24.25;5.72;;;;;;;;;;5118776;27;20264;-53
2022/05/16 04:56:47;;;;;;;14.15;3.80;;;;;;;;;;5118577;27;20036;-52
2022/05/16 04:59:13;;;;;;;13.23;3.65;;;;;;;;;;5108449;27;20051;-53
2022/05/16 05:01:38;;;;;;;15.50;3.47;;;;;;;;;;5115524;27;20032;-51
2022/05/16 05:04:03;;;;;;;7.93;4.38;;;;;;;;;;5112098;27;20039;-52
2022/05/16 05:06:29;;;;;;;13.43;4.53;;;;;;;;;;5111926;27;20050;-51
2022/05/16 05:08:54;;;;;;;2.55;1.60;;;;;;;;;;5114087;28;20536;-51
2022/05/16 05:16:47;;;;;;;20.85;5.78;;;;;;;;;;5121824;28;20535;-53
2022/05/16 05:19:12;;;;;;;17.27;4.22;;;;;;;;;;5119910;27;20059;-59
2022/05/16 05:21:38;;;;;;;3.22;1.85;;;;;;;;;;5116857;28;20039;-59
2022/05/16 05:24:03;;;;;;;3.65;2.38;;;;;;;;;;5115388;28;20043;-60
2022/05/16 05:26:29;;;;;;;4.75;3.83;;;;;;;;;;5117027;28;20077;-61
2022/05/16 05:28:54;;;;;;;12.23;3.42;;;;;;;;;;5119553;27;20096;-54
2022/05/16 05:31:20;;;;;;;4.63;4.18;;;;;;;;;;5111333;27;20062;-52
2022/05/16 05:33:46;;;;;;;9.73;3.90;;;;;;;;;;5117086;27;20058;-53
2022/05/16 05:36:11;;;;;;;17.17;3.72;;;;;;;;;;5118396;28;20396;-51
2022/05/16 05:38:37;;;;;;;21.85;17.20;;;;;;;;;;5116003;28;20057;-50
2022/05/16 05:41:06;;;;;;;8.73;4.13;;;;;;;;;;5117026;28;20465;-51
2022/05/16 05:43:32;;;;;;;10.25;5.30;;;;;;;;;;5114882;28;20051;-51
2022/05/16 05:45:57;;;;;;;19.48;4.55;;;;;;;;;;5115749;28;20127;-50
2022/05/16 05:48:23;;;;;;;32.80;4.80;;;;;;;;;;5116052;28;20046;-53
2022/05/16 05:50:48;;;;;;;21.40;3.63;;;;;;;;;;5117591;28;20032;-50
2022/05/16 05:53:13;;;;;;;11.15;4.00;;;;;;;;;;5117951;28;20035;-50
2022/05/16 05:55:40;;;;;;;9.80;4.60;;;;;;;;;;5101142;28;20040;-51
2022/05/16 05:58:06;;;;;;;10.75;3.90;;;;;;;;;;5117737;27;21392;-47
2022/05/16 06:00:31;;;;;;;17.02;5.78;;;;;;;;;;5114405;27;20047;-55
2022/05/16 06:02:56;;;;;;;29.02;6.50;;;;;;;;;;5119112;27;20125;-59
2022/05/16 06:05:22;;;;;;;11.35;4.07;;;;;;;;;;5116389;27;20565;-58
2022/05/16 06:07:47;;;;;;;21.75;5.68;;;;;;;;;;5107834;27;20445;-59
2022/05/16 06:10:13;;;;;;;8.90;4.30;;;;;;;;;;5116827;27;20125;-58
2022/05/16 06:12:39;;;;;;;50.47;12.57;;;;;;;;;;5122299;27;20045;-52
2022/05/16 06:15:05;;;;;;;8.23;3.53;;;;;;;;;;5118329;27;20073;-56
2022/05/16 06:17:31;;;;;;;11.07;6.68;;;;;;;;;;5115205;27;20092;-54
2022/05/16 06:19:57;;;;;;;6.60;4.35;;;;;;;;;;5122406;27;20051;-55
2022/05/16 06:22:22;;;;;;;22.40;4.95;;;;;;;;;;5121010;27;20109;-55
2022/05/16 06:27:32;;;;;;;10.10;5.63;;;;;;;;;;5113067;27;20496;-55
2022/05/16 06:29:57;;;;;;;19.58;5.85;;;;;;;;;;5107569;27;20040;-56
2022/05/16 06:32:23;;;;;;;9.77;4.97;;;;;;;;;;5120000;27;20500;-56
2022/05/16 06:34:48;;;;;;;29.55;21.98;;;;;;;;;;5118068;27;20062;-57
2022/05/16 06:37:14;;;;;;;21.90;17.52;;;;;;;;;;5122509;27;20047;-57
2022/05/16 06:39:39;;;;;;;16.63;9.82;;;;;;;;;;5118657;27;20470;-57
2022/05/16 06:42:05;;;;;;;22.80;8.25;;;;;;;;;;5119671;27;20095;-57
2022/05/16 06:44:30;;;;;;;11.45;6.65;;;;;;;;;;5121233;27;20553;-56
2022/05/16 06:46:56;;;;;;;9.05;5.18;;;;;;;;;;5117966;27;20392;-57
2022/05/16 06:49:22;;;;;;;12.15;6.45;;;;;;;;;;5118613;27;20592;-56
2022/05/16 06:51:47;;;;;;;9.63;5.13;;;;;;;;;;5123970;27;20127;-57
2022/05/16 06:54:12;;;;;;;8.50;4.53;;;;;;;;;;5117281;27;20357;-57
2022/05/16 06:56:38;;;;;;;9.88;5.05;;;;;;;;;;5117026;27;20047;-57
2022/05/16 06:59:03;;;;;;;9.95;5.50;;;;;;;;;;5113156;27;20054;-57
2022/05/16 07:01:28;;;;;;;7.78;4.03;;;;;;;;;;5115088;27;20047;-56
2022/05/16 07:03:54;;;;;;;5.35;3.42;;;;;;;;;;5116349;27;20047;-56
2022/05/16 07:06:19;;;;;;;21.88;9.80;;;;;;;;;;5118142;27;20415;-56
2022/05/16 07:08:44;;;;;;;9.40;5.13;;;;;;;;;;5117379;27;20047;-57
2022/05/16 07:11:10;;;;;;;7.38;4.80;;;;;;;;;;5099758;27;20042;-57
2022/05/16 07:13:35;;;;;;;7.63;4.05;;;;;;;;;;5111609;27;20440;-57
2022/05/16 07:16:01;;;;;;;11.43;4.90;;;;;;;;;;5111702;27;20051;-58
2022/05/16 07:18:27;;;;;;;8.38;4.10;;;;;;;;;;5116116;27;20096;-57
2022/05/16 07:20:53;;;;;;;9.95;4.82;;;;;;;;;;5115842;27;20051;-57
2022/05/16 07:23:18;;;;;;;5.45;3.92;;;;;;;;;;5116902;27;20050;-57
2022/05/16 07:28:27;;;;;;;19.42;4.25;;;;;;;;;;5113614;27;20129;-56
2022/05/16 07:30:53;;;;;;;7.38;3.75;;;;;;;;;;5119584;27;20052;-57
2022/05/16 07:33:19;;;;;;;9.23;4.82;;;;;;;;;;5118668;27;20150;-56
2022/05/16 07:35:44;;;;;;;7.10;5.72;;;;;;;;;;5116299;27;20117;-57
2022/05/16 07:38:09;;;;;;;7.35;3.28;;;;;;;;;;5121459;27;20669;-57
2022/05/16 07:40:36;;;;;;;9.43;7.13;;;;;;;;;;5121004;27;20051;-57
2022/05/16 07:43:02;;;;;;;5.13;3.63;;;;;;;;;;5119345;27;20051;-57
2022/05/16 07:45:28;;;;;;;4.65;3.70;;;;;;;;;;5117414;27;20045;-57
2022/05/16 07:47:53;;;;;;;9.00;6.35;;;;;;;;;;5112397;27;20127;-57
2022/05/16 07:50:18;;;;;;;6.43;3.33;;;;;;;;;;5102859;27;20460;-55
2022/05/16 07:52:47;;;;;;;4.13;2.90;;;;;;;;;;5101917;27;20621;-57
2022/05/16 07:55:15;;;;;;;21.10;9.00;;;;;;;;;;5115662;27;20047;-57
2022/05/16 07:57:40;;;;;;;14.63;9.65;;;;;;;;;;5105388;27;20116;-57
2022/05/16 08:00:06;;;;;;;25.80;17.42;;;;;;;;;;5117536;27;20046;-58
2022/05/16 08:02:31;;;;;;;17.20;10.18;;;;;;;;;;5114786;27;20042;-57
2022/05/16 08:04:56;;;;;;;9.50;6.18;;;;;;;;;;5115382;27;20124;-57
2022/05/16 08:07:22;;;;;;;11.55;6.15;;;;;;;;;;5117404;27;20056;-57
2022/05/16 08:12:33;;;;;;;9.52;4.35;;;;;;;;;;5105770;27;20108;-57
2022/05/16 08:15:00;;;;;;;4.60;3.03;;;;;;;;;;5119540;27;20040;-57
2022/05/16 08:17:25;;;;;;;9.02;4.50;;;;;;;;;;5120305;27;20051;-57
2022/05/16 08:19:51;;;;;;;13.02;4.82;;;;;;;;;;5117515;27;20047;-57
2022/05/16 08:22:17;;;;;;;10.88;4.60;;;;;;;;;;5115939;27;20051;-57
2022/05/16 08:24:43;;;;;;;7.78;5.03;;;;;;;;;;5115009;27;20059;-57
2022/05/16 08:27:08;;;;;;;8.05;5.28;;;;;;;;;;5115753;27;20081;-57
2022/05/16 08:29:34;;;;;;;4.10;3.58;;;;;;;;;;5120197;27;20054;-57
2022/05/16 08:32:00;;;;;;;9.35;5.20;;;;;;;;;;5107603;27;20139;-57
2022/05/16 08:34:25;;;;;;;9.48;5.43;;;;;;;;;;5111442;27;20036;-57
2022/05/16 08:39:56;;;;;;;8.95;4.78;;;;;;;;;;5120924;27;20042;-57
2022/05/16 08:42:36;;;;;;;6.30;3.53;;;;;;;;;;5116829;27;20043;-57
2022/05/16 08:45:03;;;;;;;11.75;3.63;;;;;;;;;;5117319;27;20109;-57
2022/05/16 08:47:38;;;;;;;12.48;6.40;;;;;;;;;;5117915;27;20055;-57
2022/05/16 08:50:13;;;;;;;6.93;4.13;;;;;;;;;;5110302;27;20035;-57
2022/05/16 08:52:38;;;;;;;6.60;3.22;;;;;;;;;;5105863;27;20047;-57
2022/05/16 08:55:07;;;;;;;9.50;5.32;;;;;;;;;;5114816;27;20043;-57
2022/05/16 08:57:40;;;;;;;20.23;4.00;;;;;;;;;;5119522;27;20092;-57
2022/05/16 09:00:19;;;;;;;7.40;3.42;;;;;;;;;;5116592;27;20044;-57
2022/05/16 09:02:48;;;;;;;16.52;4.88;;;;;;;;;;5111911;27;20136;-57
2022/05/16 09:05:24;;;;;;;9.68;5.53;;;;;;;;;;5105565;27;20035;-58
2022/05/16 09:07:51;;;;;;;16.98;3.95;;;;;;;;;;5115011;28;20039;-59
2022/05/16 09:10:29;;;;;;;5.55;3.45;;;;;;;;;;5118370;28;20048;-58
2022/05/16 09:12:55;;;;;;;10.98;4.72;;;;;;;;;;5117194;28;20043;-58
2022/05/16 09:15:23;;;;;;;5.43;2.85;;;;;;;;;;5116640;28;20420;-58
2022/05/16 09:17:51;;;;;;;7.95;2.30;;;;;;;;;;5121058;28;20058;-59
2022/05/16 09:20:26;;;;;;;5.82;2.95;;;;;;;;;;5120229;28;20047;-58
2022/05/16 09:23:05;;;;;;;9.02;4.55;;;;;;;;;;5118123;28;20051;-58
2022/05/16 09:25:50;;;;;;;9.10;2.80;;;;;;;;;;5119010;28;20168;-58
2022/05/16 09:28:34;;;;;;;2.75;1.60;;;;;;;;;;5107837;28;20056;-58
2022/05/16 09:31:04;;;;;;;8.70;2.92;;;;;;;;;;5108920;28;20055;-58
2022/05/16 09:33:31;;;;;;;11.48;4.50;;;;;;;;;;5112704;28;20499;-58
2022/05/16 09:35:56;;;;;;;6.55;4.53;;;;;;;;;;5118932;27;20042;-58
2022/05/16 09:38:22;;;;;;;9.68;4.03;;;;;;;;;;5119350;27;20052;-59
2022/05/16 09:41:13;;;;;;;5.50;3.10;;;;;;;;;;5116091;27;20059;-59
2022/05/16 09:43:40;;;;;;;18.60;5.38;;;;;;;;;;5111211;27;20044;-59
2022/05/16 09:46:16;;;;;;;21.98;11.68;;;;;;;;;;5123820;27;20043;-59
2022/05/16 09:48:42;;;;;;;7.88;4.82;;;;;;;;;;5120773;27;20035;-59
2022/05/16 09:51:09;;;;;;;10.60;4.30;;;;;;;;;;5114662;27;20051;-59
2022/05/16 09:53:38;;;;;;;5.68;2.65;;;;;;;;;;5119308;27;20044;-57
2022/05/16 09:56:09;;;;;;;6.47;4.82;;;;;;;;;;5124037;27;20093;-57
2022/05/16 09:58:36;;;;;;;8.38;6.45;;;;;;;;;;5124370;27;20055;-58
2022/05/16 10:01:04;;;;;;;10.07;5.28;;;;;;;;;;5108447;27;20043;-57
2022/05/16 10:03:32;;;;;;;8.20;5.82;;;;;;;;;;5123039;27;20731;-57
2022/05/16 10:05:59;;;;;;;8.30;4.78;;;;;;;;;;5121971;27;20066;-57
2022/05/16 10:08:26;;;;;;;12.15;6.32;;;;;;;;;;5121089;27;20143;-57
2022/05/16 10:10:53;;;;;;;10.35;5.35;;;;;;;;;;5117638;27;20063;-57
2022/05/16 10:13:18;;;;;;;13.43;5.85;;;;;;;;;;5124177;27;20043;-58
2022/05/16 10:15:52;;;;;;;25.25;4.43;;;;;;;;;;5125003;27;20066;-57
2022/05/16 10:18:18;;;;;;;19.15;6.03;;;;;;;;;;5119384;27;20036;-58
2022/05/16 10:20:49;;;;;;;10.68;3.70;;;;;;;;;;5121345;27;20078;-58
2022/05/16 10:23:14;;;;;;;;;;;;;;;;;;5122557;27;20448;-58
2022/05/16 10:25:43;;;;;;;13.90;5.22;;;;;;;;;;5113574;27;19922;-59
2022/05/16 10:28:11;;;;;;;6.10;3.63;;;;;;;;;;5112492;27;20046;-56
2022/05/16 10:33:27;;;;;;;10.18;4.15;;;;;;;;;;5085741;27;20043;-57
2022/05/16 10:36:01;;;;;;;10.43;6.70;;;;;;;;;;5116642;27;20101;-57
2022/05/16 10:38:26;;;;;;;6.75;2.88;;;;;;;;;;5111959;27;20138;-57
2022/05/16 10:40:56;;;;;;;8.52;4.25;;;;;;;;;;5115087;27;20122;-57
2022/05/16 10:43:36;;;;;;;4.53;2.95;;;;;;;;;;5113657;27;20106;-57
2022/05/16 10:46:06;;;;;;;8.27;3.58;;;;;;;;;;5110914;27;20469;-57
2022/05/16 10:48:41;;;;;;;4.72;3.05;;;;;;;;;;5114789;27;20043;-57
2022/05/16 10:51:13;;;;;;;6.13;4.65;;;;;;;;;;5106969;27;20590;-58
2022/05/16 10:53:41;;;;;;;10.48;4.57;;;;;;;;;;5112456;27;20039;-58
2022/05/16 10:56:18;;;;;;;13.10;4.22;;;;;;;;;;5110493;27;20071;-58
2022/05/16 10:58:43;;;;;;;9.05;3.25;;;;;;;;;;5117041;27;20100;-58
2022/05/16 11:01:35;;;;;;;6.53;3.22;;;;;;;;;;5118192;27;20059;-57
2022/05/16 11:04:15;;;;;;;7.47;4.85;;;;;;;;;;5101507;27;20524;-56
2022/05/16 11:06:40;;;;;;;;;;;;;;;;;;5105369;27;20111;-56
2022/05/16 11:09:06;;;;;;;10.68;3.97;;;;;;;;;;5107205;27;19919;-56
2022/05/16 11:11:40;;;;;;;6.38;3.38;;;;;;;;;;5116335;27;20042;-57
2022/05/16 11:14:14;;;;;;;13.82;4.13;;;;;;;;;;5119859;27;20553;-57
2022/05/16 11:16:39;;;;;;;17.30;5.75;;;;;;;;;;5110624;27;20028;-56
2022/05/16 11:19:08;;;;;;;7.55;3.17;;;;;;;;;;5109936;27;20090;-57
2022/05/16 11:21:36;;;;;;;15.52;6.38;;;;;;;;;;5104021;27;20043;-56
2022/05/16 11:24:01;;;;;;;8.73;4.28;;;;;;;;;;5096971;27;20108;-56
2022/05/16 11:26:47;;;;;;;7.60;3.75;;;;;;;;;;5121660;27;20044;-56
2022/05/16 11:29:20;;;;;;;10.52;4.05;;;;;;;;;;5120287;27;20135;-56
2022/05/16 11:32:02;;;;;;;7.63;4.22;;;;;;;;;;5111985;27;20046;-56
2022/05/16 11:34:49;;;;;;;7.43;3.30;;;;;;;;;;5120089;27;20501;-55
2022/05/16 11:37:18;;;;;;;6.20;3.70;;;;;;;;;;5111244;27;20046;-56
2022/05/16 11:39:52;;;;;;;12.73;6.28;;;;;;;;;;5115162;27;20046;-56
2022/05/16 11:42:23;;;;;;;15.88;5.78;;;;;;;;;;5105211;27;20050;-55
2022/05/16 11:45:03;;;;;;;13.30;4.93;;;;;;;;;;5114448;27;20089;-56
2022/05/16 11:47:47;;;;;;;7.13;3.90;;;;;;;;;;5120799;27;20544;-50
2022/05/16 11:50:28;;;;;;;16.17;6.55;;;;;;;;;;5117278;27;20051;-48
2022/05/16 11:52:56;;;;;;;7.10;5.32;;;;;;;;;;5119111;27;20043;-53
2022/05/16 12:01:00;;;;;;;11.15;5.53;;;;;;;;;;5107334;27;20050;-54
2022/05/16 12:03:44;;;;;;;31.83;7.82;;;;;;;;;;5119421;27;20035;-55
2022/05/16 12:06:15;;;;;;;12.20;4.70;;;;;;;;;;5115138;27;20043;-53
2022/05/16 12:08:42;;;;;;;14.32;6.05;;;;;;;;;;5119842;27;20055;-50
2022/05/16 12:11:09;;;;;;;7.95;5.28;;;;;;;;;;5121125;27;20063;-52
2022/05/16 12:13:35;;;;;;;10.30;4.28;;;;;;;;;;5117066;27;20078;-54
2022/05/16 12:16:13;;;;;;;7.82;5.25;;;;;;;;;;5115820;27;20044;-54
2022/05/16 12:18:41;;;;;;;12.18;4.75;;;;;;;;;;5108662;27;20035;-48
2022/05/16 12:21:19;;;;;;;10.02;3.90;;;;;;;;;;5109761;27;20078;-51
2022/05/16 12:23:48;;;;;;;12.98;5.35;;;;;;;;;;5114834;27;20039;-45
2022/05/16 12:26:26;;;;;;;8.23;5.95;;;;;;;;;;5113097;27;20134;-56
2022/05/16 12:29:14;;;;;;;22.52;6.30;;;;;;;;;;5115546;27;20047;-59
2022/05/16 12:31:48;;;;;;;6.10;3.45;;;;;;;;;;5108494;27;20059;-59
2022/05/16 12:34:14;;;;;;;9.20;5.10;;;;;;;;;;5109345;27;20043;-59
2022/05/16 12:36:39;;;;;;;9.80;4.53;;;;;;;;;;5104115;27;20404;-59
2022/05/16 12:39:43;;;;;;;6.05;3.33;;;;;;;;;;5101148;27;20563;-59
2022/05/16 12:42:27;;;;;;;8.35;3.30;;;;;;;;;;5030829;28;20132;-59
2022/05/16 12:45:01;;;;;;;9.27;5.47;;;;;;;;;;5050068;28;20057;-60
2022/05/16 12:47:45;;;;;;;7.40;5.97;;;;;;;;;;5089589;27;20039;-52
2022/05/16 12:50:29;;;;;;;19.63;6.88;;;;;;;;;;5107415;27;20040;-48
2022/05/16 12:53:06;;;;;;;13.70;6.72;;;;;;;;;;5106062;27;20031;-53
2022/05/16 12:55:47;;;;;;;11.88;5.55;;;;;;;;;;5116855;27;20039;-50
2022/05/16 12:58:21;;;;;;;12.70;5.53;;;;;;;;;;5115607;28;20043;-54
2022/05/16 13:01:04;;;;;;;5.85;4.00;;;;;;;;;;5103416;27;20066;-53
2022/05/16 13:03:38;;;;;;;9.63;6.22;;;;;;;;;;5111647;27;20036;-53
2022/05/16 13:06:06;;;;;;;9.02;4.35;;;;;;;;;;5118071;28;20050;-53
2022/05/16 13:08:32;;;;;;;8.88;5.20;;;;;;;;;;5119116;28;20043;-55
2022/05/16 13:11:09;;;;;;;15.48;4.53;;;;;;;;;;5121658;27;20059;-62
2022/05/16 13:13:40;;;;;;;34.28;7.22;;;;;;;;;;5110818;27;20046;-53
2022/05/16 13:16:15;;;;;;;9.70;3.90;;;;;;;;;;5112580;27;20128;-55
2022/05/16 13:18:45;;;;;;;13.80;5.97;;;;;;;;;;5119157;27;20144;-51
2022/05/16 13:21:15;;;;;;;5.03;3.70;;;;;;;;;;5128135;27;20128;-52
2022/05/16 13:23:41;;;;;;;5.80;3.88;;;;;;;;;;5120983;27;20071;-52
2022/05/16 13:29:23;;;;;;;5.05;2.20;;;;;;;;;;5124584;27;20137;-54
2022/05/16 13:31:44;;;;;;;24.15;5.60;;;;;;;;;;5114851;27;20058;-53
2022/05/16 13:34:11;;;;;;;10.10;5.03;;;;;;;;;;5116460;27;20037;-54
2022/05/16 13:36:38;;;;;;;10.52;3.92;;;;;;;;;;5110975;27;20028;-50
2022/05/16 13:39:09;;;;;;;12.48;7.28;;;;;;;;;;5110167;27;20100;-55
2022/05/16 13:41:36;;;;;;;16.25;8.02;;;;;;;;;;5119415;27;20078;-54
2022/05/16 13:44:01;;;;;;;10.38;7.20;;;;;;;;;;5109115;27;20108;-56
2022/05/16 13:46:28;;;;;;;18.85;6.82;;;;;;;;;;5109688;27;20047;-54
2022/05/16 13:48:57;;;;;;;4.40;3.55;;;;;;;;;;5119927;27;20440;-56
2022/05/16 13:51:23;;;;;;;7.78;4.65;;;;;;;;;;5124735;27;20100;-57
2022/05/16 13:53:48;;;;;;;14.20;4.82;;;;;;;;;;5110764;27;20524;-55
2022/05/16 13:56:13;;;;;;;10.70;6.10;;;;;;;;;;5119396;27;20102;-53
2022/05/16 13:58:39;;;;;;;4.20;2.95;;;;;;;;;;5124550;27;20042;-54
2022/05/16 14:01:19;;;;;;;7.30;5.43;;;;;;;;;;5122788;27;20035;-54
2022/05/16 14:03:56;;;;;;;13.77;5.80;;;;;;;;;;5126452;27;20134;-54
2022/05/16 14:06:31;;;;;;;5.00;2.78;;;;;;;;;;5123948;27;20039;-54
2022/05/16 14:09:01;;;;;;;10.15;5.00;;;;;;;;;;5122941;27;20512;-55
2022/05/16 14:11:27;;;;;;;6.35;4.20;;;;;;;;;;5123696;27;20878;-55
2022/05/16 14:13:54;;;;;;;9.15;5.10;;;;;;;;;;5113512;27;20052;-55
2022/05/16 14:16:21;;;;;;;5.05;3.45;;;;;;;;;;5123716;27;20058;-55
2022/05/16 14:18:47;;;;;;;8.88;3.95;;;;;;;;;;5127763;27;20073;-55
2022/05/16 14:21:20;;;;;;;3.25;2.63;;;;;;;;;;5111720;27;20047;-56
2022/05/16 14:24:05;;;;;;;13.02;7.50;;;;;;;;;;5117534;27;20043;-55
2022/05/16 14:26:31;;;;;;;7.00;3.97;;;;;;;;;;5120247;27;20124;-54
2022/05/16 14:29:15;;;;;;;10.85;3.92;;;;;;;;;;5116611;27;20047;-55
2022/05/16 14:31:42;;;;;;;8.18;4.65;;;;;;;;;;5117827;27;20047;-54
2022/05/16 14:34:25;;;;;;;10.80;3.95;;;;;;;;;;5120455;27;20121;-56
2022/05/16 14:36:52;;;;;;;8.18;4.70;;;;;;;;;;5123211;27;20201;-53
2022/05/16 14:39:17;;;;;;;16.92;4.68;;;;;;;;;;5116511;27;20047;-55
2022/05/16 14:41:49;;;;;;;7.07;5.63;;;;;;;;;;5114514;27;20134;-54
2022/05/16 14:44:29;;;;;;;19.35;6.63;;;;;;;;;;5116265;27;20074;-54
2022/05/16 14:47:01;;;;;;;12.77;3.92;;;;;;;;;;5118056;27;20092;-54
2022/05/16 14:49:26;;;;;;;3.20;2.55;;;;;;;;;;5118249;27;20059;-53
2022/05/16 14:51:52;;;;;;;18.80;8.55;;;;;;;;;;5115922;27;20048;-55
2022/05/16 14:54:46;;;;;;;8.18;6.68;;;;;;;;;;5099594;28;20576;-54
2022/05/16 14:57:11;;;;;;;14.32;6.40;;;;;;;;;;5119217;27;20043;-54
2022/05/16 14:59:37;;;;;;;13.73;6.32;;;;;;;;;;5119588;27;20047;-55
2022/05/16 15:04:46;;;;;;;8.38;5.88;;;;;;;;;;5114640;27;20049;-54
2022/05/16 15:07:13;;;;;;;12.80;7.05;;;;;;;;;;5115161;27;20035;-52
2022/05/16 15:09:39;;;;;;;8.15;5.70;;;;;;;;;;5112833;27;20054;-54
2022/05/16 15:12:08;;;;;;;6.78;5.55;;;;;;;;;;5119605;27;20047;-51
2022/05/16 15:14:35;;;;;;;12.27;6.93;;;;;;;;;;5108617;27;20036;-54
2022/05/16 15:17:00;;;;;;;7.60;4.15;;;;;;;;;;5111835;27;20053;-54
2022/05/16 15:19:26;;;;;;;10.50;3.30;;;;;;;;;;5109163;27;20121;-51
2022/05/16 15:21:52;;;;;;;6.00;4.45;;;;;;;;;;5118632;27;20521;-53
2022/05/16 15:24:28;;;;;;;7.28;4.60;;;;;;;;;;5120235;27;20047;-53
2022/05/16 15:26:53;;;;;;;12.57;5.55;;;;;;;;;;5113509;27;20050;-53
2022/05/16 15:29:19;;;;;;;9.85;4.47;;;;;;;;;;5111768;27;20439;-53
2022/05/16 15:31:45;;;;;;;7.82;5.75;;;;;;;;;;5116545;27;20106;-53
2022/05/16 15:34:10;;;;;;;12.02;4.90;;;;;;;;;;5107133;27;20707;-54
2022/05/16 15:36:35;;;;;;;10.55;6.15;;;;;;;;;;5116028;27;20491;-54
2022/05/16 15:39:01;;;;;;;6.25;4.18;;;;;;;;;;5115866;27;20146;-54
2022/05/16 15:41:28;;;;;;;10.90;5.50;;;;;;;;;;5117706;27;20081;-52
2022/05/16 15:43:54;;;;;;;22.33;6.78;;;;;;;;;;5124462;27;20063;-54
2022/05/16 15:46:20;;;;;;;12.70;7.50;;;;;;;;;;5119591;27;20503;-51